Time;durP1;ratioP1;P1;durP2;ratioP2;P2;SDS_P1;SDS_P2;PMS_P1;PMS_P2;Temp;Humidity;BMP_temperature;BMP_pressure;BME280_temperature;BME280_humidity;BME280_pressure;Samples;Min_cycle;Max_cycle;Signal;HPM_P1;HPM_P2
2022/05/14 00:00:35;;;;;;;3.93;2.90;;;21.30;46.30;;;;;;5055593;28;20437;-44
2022/05/14 00:03:01;;;;;;;9.27;3.60;;;21.20;46.30;;;;;;5056288;28;20244;-44
2022/05/14 00:05:27;;;;;;;4.00;2.93;;;21.00;46.90;;;;;;5058035;28;20192;-43
2022/05/14 00:07:53;;;;;;;4.83;3.20;;;20.80;47.10;;;;;;5052432;28;20196;-44
2022/05/14 00:10:22;;;;;;;6.63;2.97;;;20.80;47.20;;;;;;5052977;28;20434;-43
2022/05/14 00:13:05;;;;;;;3.30;3.00;;;20.80;47.20;;;;;;5051557;28;20196;-43
2022/05/14 00:15:41;;;;;;;4.60;3.03;;;20.60;47.50;;;;;;5059984;28;20446;-43
2022/05/14 00:18:09;;;;;;;5.27;3.20;;;20.50;47.60;;;;;;5053319;28;20440;-43
2022/05/14 00:20:36;;;;;;;3.60;3.30;;;20.50;47.80;;;;;;5064966;28;20507;-44
2022/05/14 00:23:03;;;;;;;3.60;3.00;;;20.50;47.70;;;;;;5054936;28;20443;-45
2022/05/14 00:25:29;;;;;;;4.00;3.30;;;20.30;48.00;;;;;;5061958;28;20445;-44
2022/05/14 00:27:55;;;;;;;5.60;3.10;;;20.20;48.60;;;;;;5057092;28;20513;-43
2022/05/14 00:30:24;;;;;;;4.10;3.30;;;20.10;48.60;;;;;;5056297;28;20430;-45
2022/05/14 00:32:51;;;;;;;6.40;3.20;;;20.10;48.70;;;;;;5050698;28;20193;-44
2022/05/14 00:35:18;;;;;;;3.07;2.77;;;20.20;48.50;;;;;;5053350;28;20435;-43
2022/05/14 00:37:44;;;;;;;4.90;3.10;;;20.20;48.70;;;;;;5067284;28;20500;-43
2022/05/14 00:40:23;;;;;;;4.80;3.17;;;20.10;48.90;;;;;;5055839;28;21069;-43
2022/05/14 00:42:49;;;;;;;8.00;3.13;;;20.10;48.90;;;;;;5056208;28;20437;-43
2022/05/14 00:45:16;;;;;;;7.90;3.17;;;20.10;49.20;;;;;;5051061;28;20826;-46
2022/05/14 00:47:45;;;;;;;4.15;3.35;;;20.10;49.10;;;;;;5050590;28;20200;-43
2022/05/14 00:50:36;;;;;;;4.30;2.90;;;20.00;49.40;;;;;;5060760;28;20783;-43
2022/05/14 00:53:07;;;;;;;5.23;3.53;;;20.00;49.30;;;;;;5065698;28;21173;-43
2022/05/14 00:55:34;;;;;;;4.73;3.30;;;19.70;49.50;;;;;;5054482;28;20445;-44
2022/05/14 00:58:01;;;;;;;4.90;3.80;;;19.50;49.90;;;;;;5061683;28;20487;-43
2022/05/14 01:00:27;;;;;;;6.20;3.10;;;19.50;50.20;;;;;;5055514;28;20439;-44
2022/05/14 01:02:52;;;;;;;4.47;3.07;;;19.60;49.90;;;;;;5053044;28;20482;-44
2022/05/14 01:05:20;;;;;;;4.13;3.30;;;19.50;50.10;;;;;;5057831;28;20663;-43
2022/05/14 01:07:49;;;;;;;5.40;3.37;;;19.50;50.70;;;;;;5063850;28;20254;-43
2022/05/14 01:10:17;;;;;;;4.13;3.63;;;19.60;50.10;;;;;;5056961;28;20521;-43
2022/05/14 01:12:58;;;;;;;2.90;2.60;;;19.70;49.70;;;;;;5066556;28;20454;-44
2022/05/14 01:15:41;;;;;;;3.43;3.13;;;19.70;50.00;;;;;;5050400;28;20442;-45
2022/05/14 01:18:07;;;;;;;7.10;3.30;;;19.80;49.70;;;;;;5052073;28;20530;-43
2022/05/14 01:20:35;;;;;;;4.83;3.00;;;19.90;49.30;;;;;;5057104;28;20514;-45
2022/05/14 01:23:30;;;;;;;3.73;3.10;;;19.90;49.10;;;;;;5056061;28;20195;-43
2022/05/14 01:28:49;;;;;;;4.70;2.63;;;19.90;48.70;;;;;;5063114;28;20964;-43
2022/05/14 01:31:15;;;;;;;3.97;3.03;;;19.60;49.60;;;;;;5058578;28;20446;-44
2022/05/14 01:33:40;;;;;;;4.53;2.57;;;19.60;49.50;;;;;;5057669;28;20290;-45
2022/05/14 01:36:08;;;;;;;3.43;3.13;;;19.50;49.60;;;;;;5053774;28;20196;-43
2022/05/14 01:38:35;;;;;;;4.77;3.20;;;19.50;50.00;;;;;;5056488;28;20254;-44
2022/05/14 01:41:01;;;;;;;12.50;3.30;;;19.60;49.80;;;;;;5057346;28;20454;-43
2022/05/14 01:43:27;;;;;;;3.60;3.00;;;19.60;49.30;;;;;;5061090;28;20451;-43
2022/05/14 01:45:53;;;;;;;4.80;3.10;;;19.50;49.70;;;;;;5058811;28;20444;-43
2022/05/14 01:48:19;;;;;;;4.83;2.90;;;19.50;49.40;;;;;;5061366;28;20841;-43
2022/05/14 01:50:44;;;;;;;6.63;3.00;;;19.40;49.80;;;;;;5060051;28;20243;-43
2022/05/14 01:53:10;;;;;;;4.13;3.27;;;19.40;49.70;;;;;;5062479;28;20299;-43
2022/05/14 01:55:36;;;;;;;4.70;3.27;;;19.20;49.80;;;;;;5065774;28;20249;-42
2022/05/14 01:58:36;;;;;;;4.27;3.13;;;18.90;50.50;;;;;;5063670;28;20196;-43
2022/05/14 02:00:47;;;;;;;4.43;3.03;;;18.50;51.30;;;;;;5063243;28;20198;-44
2022/05/14 02:03:12;;;;;;;4.20;3.10;;;18.40;52.00;;;;;;5051381;28;21483;-43
2022/05/14 02:05:38;;;;;;;6.20;2.77;;;18.30;52.20;;;;;;5057572;28;20211;-43
2022/05/14 02:08:04;;;;;;;4.80;2.50;;;18.50;51.90;;;;;;5061575;28;20227;-42
2022/05/14 02:10:29;;;;;;;5.43;2.83;;;18.60;51.70;;;;;;5058284;28;20196;-43
2022/05/14 02:12:55;;;;;;;3.50;3.10;;;18.70;51.40;;;;;;5060405;28;20552;-45
2022/05/14 02:15:21;;;;;;;3.20;2.90;;;18.70;50.90;;;;;;5052935;28;20577;-43
2022/05/14 02:17:47;;;;;;;5.57;2.90;;;18.70;51.10;;;;;;5055991;28;20443;-42
2022/05/14 02:20:12;;;;;;;5.63;2.63;;;18.70;50.70;;;;;;5059564;28;20188;-43
2022/05/14 02:22:39;;;;;;;5.07;2.93;;;18.60;51.00;;;;;;5064734;28;20197;-43
2022/05/14 02:25:05;;;;;;;3.50;2.60;;;18.40;51.50;;;;;;5063048;28;20275;-43
2022/05/14 02:27:30;;;;;;;3.57;2.77;;;18.50;51.60;;;;;;5055471;28;20451;-43
2022/05/14 02:29:56;;;;;;;8.43;3.10;;;18.60;51.20;;;;;;5064059;28;20544;-43
2022/05/14 02:32:26;;;;;;;4.03;2.97;;;18.60;51.00;;;;;;5065126;28;20205;-44
2022/05/14 02:34:53;;;;;;;3.73;2.50;;;18.60;50.60;;;;;;5069892;28;20218;-43
2022/05/14 02:37:23;;;;;;;4.30;2.70;;;18.60;50.60;;;;;;5073556;28;20544;-43
2022/05/14 02:39:49;;;;;;;2.77;2.57;;;18.70;50.90;;;;;;5068475;28;20436;-44
2022/05/14 02:42:16;;;;;;;4.50;3.13;;;18.70;50.80;;;;;;5069082;28;20454;-43
2022/05/14 02:44:42;;;;;;;4.60;2.57;;;18.70;50.80;;;;;;5061279;28;20853;-44
2022/05/14 02:47:08;;;;;;;3.47;3.20;;;18.70;50.70;;;;;;5059435;28;20439;-43
2022/05/14 02:49:34;;;;;;;5.40;2.50;;;18.60;50.90;;;;;;5057567;28;20713;-43
2022/05/14 02:51:59;;;;;;;7.23;3.40;;;18.60;51.10;;;;;;5067962;28;20430;-45
2022/05/14 02:54:25;;;;;;;4.37;2.97;;;18.60;51.10;;;;;;5074614;28;20208;-43
2022/05/14 02:56:51;;;;;;;5.20;3.10;;;18.60;50.80;;;;;;5060538;28;20258;-43
2022/05/14 02:59:17;;;;;;;4.67;2.97;;;18.60;50.90;;;;;;5059303;28;20191;-43
2022/05/14 03:01:49;;;;;;;7.60;3.47;;;18.60;50.60;;;;;;5052617;28;20874;-43
2022/05/14 03:04:22;;;;;;;2.80;2.60;;;18.50;51.00;;;;;;5071014;28;20219;-48
2022/05/14 03:06:51;;;;;;;5.77;3.10;;;18.50;51.10;;;;;;5065104;28;20438;-43
2022/05/14 03:09:17;;;;;;;4.70;3.23;;;18.50;51.00;;;;;;5061361;28;20578;-43
2022/05/14 03:11:43;;;;;;;3.57;2.80;;;18.50;50.80;;;;;;5057851;28;20446;-43
2022/05/14 03:14:09;;;;;;;4.30;2.80;;;18.40;51.10;;;;;;5069566;28;20196;-43
2022/05/14 03:16:36;;;;;;;4.73;3.20;;;18.30;51.10;;;;;;5058602;28;20573;-43
2022/05/14 03:19:02;;;;;;;3.73;3.07;;;18.30;51.20;;;;;;5059955;28;21348;-44
2022/05/14 03:21:27;;;;;;;4.83;2.87;;;18.10;51.20;;;;;;5054531;28;21087;-43
2022/05/14 03:23:53;;;;;;;5.73;3.20;;;18.00;51.70;;;;;;5059601;28;20516;-43
2022/05/14 03:26:19;;;;;;;3.43;3.13;;;18.10;51.90;;;;;;5047505;28;20586;-43
2022/05/14 03:28:45;;;;;;;4.30;3.67;;;18.10;51.80;;;;;;5055110;28;20231;-43
2022/05/14 03:31:12;;;;;;;5.80;3.07;;;18.20;52.00;;;;;;5056662;28;20229;-43
2022/05/14 03:33:37;;;;;;;4.00;3.13;;;18.20;50.90;;;;;;5051873;28;21016;-43
2022/05/14 03:36:03;;;;;;;5.50;2.87;;;18.20;51.00;;;;;;5061021;28;20530;-43
2022/05/14 03:38:29;;;;;;;3.43;2.97;;;18.20;51.10;;;;;;5058288;28;20192;-43
2022/05/14 03:40:54;;;;;;;3.30;3.00;;;18.20;50.80;;;;;;5054228;28;20197;-44
2022/05/14 03:43:20;;;;;;;5.20;3.10;;;18.20;51.30;;;;;;5058537;28;20189;-43
2022/05/14 03:45:45;;;;;;;5.40;3.17;;;18.00;51.00;;;;;;5056086;28;20196;-44
2022/05/14 03:48:11;;;;;;;5.33;3.63;;;18.10;51.50;;;;;;5055422;28;20301;-43
2022/05/14 03:50:37;;;;;;;4.40;3.50;;;18.10;51.20;;;;;;5058275;28;20184;-43
2022/05/14 03:53:02;;;;;;;3.97;3.10;;;18.20;50.90;;;;;;5067916;28;20300;-43
2022/05/14 03:55:28;;;;;;;9.17;3.20;;;18.20;50.40;;;;;;5060611;28;20589;-43
2022/05/14 03:57:54;;;;;;;5.17;3.27;;;18.10;51.10;;;;;;5060749;28;20191;-43
2022/05/14 04:00:20;;;;;;;2.97;2.77;;;18.00;51.00;;;;;;5058367;28;20256;-46
2022/05/14 04:02:46;;;;;;;3.10;2.90;;;18.00;51.50;;;;;;5052506;28;20227;-43
2022/05/14 04:05:13;;;;;;;4.53;2.67;;;18.00;51.20;;;;;;5061776;28;20437;-42
2022/05/14 04:07:40;;;;;;;5.20;2.97;;;18.20;51.00;;;;;;5053603;28;20472;-43
2022/05/14 04:10:07;;;;;;;4.03;3.00;;;18.10;50.60;;;;;;5051803;28;20511;-44
2022/05/14 04:12:33;;;;;;;10.73;3.03;;;18.00;50.70;;;;;;5056612;28;20466;-44
2022/05/14 04:14:58;;;;;;;3.80;2.73;;;18.00;51.20;;;;;;5061181;28;20478;-44
2022/05/14 04:17:25;;;;;;;4.13;3.00;;;18.00;50.90;;;;;;5055643;28;20254;-44
2022/05/14 04:19:50;;;;;;;8.43;3.50;;;18.00;51.00;;;;;;5064553;28;20642;-44
2022/05/14 04:22:16;;;;;;;3.63;2.93;;;17.90;51.40;;;;;;5054380;28;20463;-44
2022/05/14 04:24:41;;;;;;;5.17;3.40;;;17.90;51.50;;;;;;5059480;28;20196;-43
2022/05/14 04:27:07;;;;;;;3.60;3.00;;;17.80;51.70;;;;;;5061724;28;20200;-44
2022/05/14 04:29:33;;;;;;;6.97;2.80;;;17.70;52.10;;;;;;5051754;28;20239;-44
2022/05/14 04:31:58;;;;;;;8.83;2.90;;;17.80;52.10;;;;;;5059451;28;20593;-44
2022/05/14 04:34:24;;;;;;;9.93;3.47;;;17.90;52.00;;;;;;5062603;28;20195;-44
2022/05/14 04:36:50;;;;;;;7.03;2.60;;;18.00;52.00;;;;;;5061273;28;20242;-44
2022/05/14 04:39:15;;;;;;;5.10;2.63;;;18.10;51.60;;;;;;5060383;28;20200;-44
2022/05/14 04:41:41;;;;;;;7.73;2.90;;;18.20;51.50;;;;;;5058737;28;20659;-45
2022/05/14 04:44:06;;;;;;;7.03;2.90;;;18.00;51.70;;;;;;5062070;28;20195;-44
2022/05/14 04:46:35;;;;;;;2.97;2.77;;;17.80;52.40;;;;;;5053516;28;20193;-46
2022/05/14 04:49:01;;;;;;;3.13;2.83;;;17.50;52.20;;;;;;5056535;28;20220;-43
2022/05/14 04:51:27;;;;;;;3.77;3.00;;;17.00;53.40;;;;;;5055666;28;20464;-45
2022/05/14 04:53:52;;;;;;;3.43;2.73;;;16.90;54.00;;;;;;5055111;28;20517;-43
2022/05/14 04:56:18;;;;;;;4.50;2.60;;;17.00;53.90;;;;;;5057737;28;20191;-44
2022/05/14 04:58:44;;;;;;;3.50;2.73;;;17.10;54.20;;;;;;5060689;28;20191;-46
2022/05/14 05:01:09;;;;;;;3.67;2.63;;;17.30;53.80;;;;;;5053377;28;20698;-44
2022/05/14 05:03:35;;;;;;;4.90;3.40;;;17.70;52.90;;;;;;5050916;28;20192;-43
2022/05/14 05:06:01;;;;;;;6.10;2.80;;;17.70;52.60;;;;;;5049882;28;20224;-44
2022/05/14 05:08:30;;;;;;;5.17;3.00;;;17.90;52.30;;;;;;5054860;28;20510;-44
2022/05/14 05:10:56;;;;;;;7.53;2.47;;;17.90;52.30;;;;;;5056570;28;20210;-44
2022/05/14 05:13:24;;;;;;;3.50;3.20;;;18.10;52.20;;;;;;5059110;28;20864;-44
2022/05/14 05:15:50;;;;;;;3.80;2.90;;;18.20;51.90;;;;;;5055801;28;20431;-44
2022/05/14 05:18:17;;;;;;;4.10;2.43;;;18.40;51.70;;;;;;5065542;28;20454;-44
2022/05/14 05:20:44;;;;;;;3.40;3.07;;;18.60;51.30;;;;;;5059276;28;20446;-47
2022/05/14 05:23:19;;;;;;;8.80;3.20;;;18.70;51.40;;;;;;5065759;28;20434;-47
2022/05/14 05:25:46;;;;;;;4.63;3.37;;;18.80;51.30;;;;;;5063416;28;20445;-46
2022/05/14 05:28:11;;;;;;;5.00;3.40;;;18.60;51.40;;;;;;5061914;28;20467;-43
2022/05/14 05:30:37;;;;;;;3.67;2.77;;;18.20;52.70;;;;;;5060309;28;20477;-45
2022/05/14 05:33:03;;;;;;;6.80;2.80;;;18.30;52.60;;;;;;5058473;28;20201;-45
2022/05/14 05:35:28;;;;;;;6.53;2.67;;;18.60;52.40;;;;;;5061730;28;20527;-43
2022/05/14 05:37:54;;;;;;;3.23;2.83;;;18.70;52.00;;;;;;5066358;28;20223;-43
2022/05/14 05:40:20;;;;;;;6.43;3.33;;;18.60;51.90;;;;;;5060351;28;20202;-43
2022/05/14 05:42:46;;;;;;;3.50;3.20;;;18.50;52.50;;;;;;5067333;28;20184;-44
2022/05/14 05:45:15;;;;;;;4.23;2.60;;;18.50;53.00;;;;;;5063102;28;20444;-45
2022/05/14 05:47:40;;;;;;;5.77;2.67;;;18.70;52.70;;;;;;5064298;28;20529;-47
2022/05/14 05:50:07;;;;;;;2.77;2.50;;;18.90;52.10;;;;;;5055471;28;20569;-44
2022/05/14 05:52:33;;;;;;;6.83;2.80;;;19.00;54.80;;;;;;5062941;28;20195;-47
2022/05/14 05:57:44;;;;;;;3.60;3.30;;;19.30;52.30;;;;;;5055566;28;20195;-47
2022/05/14 06:00:19;;;;;;;6.40;3.30;;;19.10;52.30;;;;;;5059417;28;20442;-46
2022/05/14 06:02:46;;;;;;;3.63;3.23;;;19.00;53.10;;;;;;5062855;28;20465;-44
2022/05/14 06:05:15;;;;;;;3.47;3.17;;;18.70;54.30;;;;;;5057465;28;20568;-43
2022/05/14 06:07:40;;;;;;;7.67;3.40;;;18.40;54.70;;;;;;5059615;28;20446;-46
2022/05/14 06:10:08;;;;;;;4.50;3.43;;;18.50;54.60;;;;;;5072084;28;21224;-46
2022/05/14 06:12:38;;;;;;;10.20;4.00;;;18.50;54.80;;;;;;5072723;28;20191;-43
2022/05/14 06:15:08;;;;;;;5.23;3.43;;;18.40;55.30;;;;;;5072367;28;20544;-43
2022/05/14 06:17:34;;;;;;;7.43;3.70;;;18.50;55.30;;;;;;5073205;28;20873;-42
2022/05/14 06:19:59;;;;;;;4.20;3.43;;;18.90;54.90;;;;;;5072303;28;20418;-44
2022/05/14 06:22:25;;;;;;;8.37;4.53;;;18.90;54.70;;;;;;5073043;28;20191;-45
2022/05/14 06:24:51;;;;;;;5.20;3.30;;;19.00;54.80;;;;;;5071132;28;20308;-45
2022/05/14 06:27:16;;;;;;;5.30;3.40;;;19.10;54.60;;;;;;5072611;28;20188;-47
2022/05/14 06:29:42;;;;;;;8.10;3.17;;;19.20;54.40;;;;;;5072280;28;20234;-43
2022/05/14 06:32:07;;;;;;;7.37;3.73;;;19.30;54.20;;;;;;5072668;28;20241;-44
2022/05/14 06:34:33;;;;;;;4.63;3.70;;;19.40;54.10;;;;;;5072255;28;20196;-43
2022/05/14 06:36:58;;;;;;;4.40;3.10;;;19.50;54.20;;;;;;5072277;28;20191;-42
2022/05/14 06:39:24;;;;;;;3.37;2.93;;;19.60;53.70;;;;;;5072616;28;20196;-47
2022/05/14 06:41:50;;;;;;;5.07;4.00;;;19.80;53.70;;;;;;5071905;28;20206;-45
2022/05/14 06:44:15;;;;;;;3.40;3.10;;;20.20;53.30;;;;;;5072379;28;20203;-45
2022/05/14 06:46:41;;;;;;;4.60;3.83;;;20.50;52.50;;;;;;5072106;28;20202;-43
2022/05/14 06:49:06;;;;;;;7.53;4.03;;;20.60;52.00;;;;;;5072333;28;20630;-45
2022/05/14 06:51:33;;;;;;;3.77;3.20;;;20.60;52.40;;;;;;5071612;28;20227;-43
2022/05/14 06:54:06;;;;;;;4.60;3.50;;;20.90;52.30;;;;;;5070961;28;20504;-43
2022/05/14 06:56:34;;;;;;;3.73;3.20;;;21.20;50.80;;;;;;5071631;28;20418;-44
2022/05/14 06:59:00;;;;;;;3.20;2.90;;;21.10;50.40;;;;;;5072178;28;20430;-43
2022/05/14 07:01:28;;;;;;;3.87;3.50;;;21.30;50.20;;;;;;5071378;28;20465;-46
2022/05/14 07:06:42;;;;;;;3.93;2.90;;;21.90;49.70;;;;;;5071858;28;20433;-45
2022/05/14 07:09:11;;;;;;;4.60;3.07;;;21.80;49.90;;;;;;5072156;28;20473;-47
2022/05/14 07:11:40;;;;;;;3.70;3.30;;;22.10;49.90;;;;;;5071301;28;20567;-47
2022/05/14 07:14:06;;;;;;;5.43;3.00;;;22.40;48.70;;;;;;5071687;28;20427;-47
2022/05/14 07:16:32;;;;;;;6.27;3.20;;;22.60;47.60;;;;;;5071529;28;20422;-45
2022/05/14 07:18:58;;;;;;;4.33;3.03;;;22.80;46.30;;;;;;5069695;28;20938;-44
2022/05/14 07:21:24;;;;;;;6.33;5.10;;;23.00;46.00;;;;;;5071238;28;20513;-45
2022/05/14 07:23:49;;;;;;;3.73;2.90;;;23.20;45.30;;;;;;5071716;28;20283;-45
2022/05/14 07:26:15;;;;;;;3.07;2.40;;;23.20;45.40;;;;;;5071569;28;21179;-44
2022/05/14 07:28:41;;;;;;;3.70;2.60;;;23.50;45.20;;;;;;5071875;28;20314;-44
2022/05/14 07:31:08;;;;;;;3.33;2.57;;;23.50;45.00;;;;;;5071224;28;20498;-44
2022/05/14 07:33:34;;;;;;;3.37;2.50;;;23.70;43.80;;;;;;5071357;28;20227;-45
2022/05/14 07:36:12;;;;;;;4.33;2.17;;;23.90;43.00;;;;;;5070930;28;20469;-44
2022/05/14 07:38:39;;;;;;;2.33;1.87;;;24.10;42.80;;;;;;5071506;28;20429;-44
2022/05/14 07:41:06;;;;;;;4.53;2.40;;;24.20;42.30;;;;;;5070772;28;20989;-45
2022/05/14 07:43:37;;;;;;;3.30;2.20;;;24.40;41.40;;;;;;5071242;28;20480;-45
2022/05/14 07:46:10;;;;;;;3.10;2.20;;;24.60;41.90;;;;;;5069108;28;20446;-46
2022/05/14 07:48:37;;;;;;;7.50;2.53;;;24.70;42.00;;;;;;5071777;28;20476;-48
2022/05/14 07:51:06;;;;;;;2.87;2.57;;;24.80;40.50;;;;;;5070759;28;20430;-46
2022/05/14 07:53:32;;;;;;;4.17;1.70;;;25.00;41.10;;;;;;5070854;28;20415;-46
2022/05/14 07:56:02;;;;;;;5.97;1.23;;;25.20;41.60;;;;;;5070524;28;20472;-48
2022/05/14 07:58:29;;;;;;;1.50;1.37;;;25.30;38.50;;;;;;5071245;28;20429;-46
2022/05/14 08:00:56;;;;;;;2.17;1.70;;;25.40;36.10;;;;;;5070293;28;20481;-47
2022/05/14 08:03:23;;;;;;;3.30;1.70;;;25.50;37.80;;;;;;5058406;28;20419;-47
2022/05/14 08:05:49;;;;;;;1.63;1.53;;;25.60;38.50;;;;;;5057359;28;21082;-47
2022/05/14 08:08:15;;;;;;;1.60;1.40;;;25.70;38.40;;;;;;5070814;28;20846;-48
2022/05/14 08:10:41;;;;;;;3.77;2.30;;;25.90;37.10;;;;;;5070451;28;20430;-46
2022/05/14 08:13:06;;;;;;;2.40;1.60;;;26.10;36.60;;;;;;5068620;28;20575;-47
2022/05/14 08:15:32;;;;;;;6.10;1.97;;;26.20;37.60;;;;;;5070318;28;20263;-45
2022/05/14 08:17:58;;;;;;;1.80;1.60;;;26.30;38.20;;;;;;5070874;28;20213;-45
2022/05/14 08:20:24;;;;;;;2.40;1.30;;;26.40;38.50;;;;;;5070046;28;20274;-44
2022/05/14 08:25:35;;;;;;;2.60;1.50;;;26.60;37.50;;;;;;5070185;28;20543;-46
2022/05/14 08:28:00;;;;;;;3.80;1.93;;;26.80;37.80;;;;;;5070543;28;20896;-43
2022/05/14 08:30:30;;;;;;;4.10;1.40;;;26.90;36.70;;;;;;5069614;28;20748;-45
2022/05/14 08:32:56;;;;;;;1.80;1.70;;;27.10;36.60;;;;;;5069571;28;20199;-45
2022/05/14 08:35:23;;;;;;;1.77;1.67;;;27.10;37.00;;;;;;5070073;28;20518;-44
2022/05/14 08:37:50;;;;;;;4.13;1.60;;;27.20;35.30;;;;;;5070510;28;20472;-48
2022/05/14 08:40:25;;;;;;;3.37;1.50;;;27.30;35.30;;;;;;5068272;28;20425;-44
2022/05/14 08:42:54;;;;;;;2.23;1.50;;;27.50;34.60;;;;;;5069686;28;20434;-45
2022/05/14 08:45:22;;;;;;;1.87;1.70;;;27.60;34.50;;;;;;5069752;28;20857;-45
2022/05/14 08:48:03;;;;;;;2.03;1.73;;;27.70;34.80;;;;;;5070270;28;20793;-43
2022/05/14 08:50:35;;;;;;;1.80;1.70;;;27.80;33.60;;;;;;5069367;28;20473;-46
2022/05/14 08:53:04;;;;;;;2.13;1.37;;;27.90;33.00;;;;;;5069687;28;20454;-43
2022/05/14 08:55:54;;;;;;;3.73;1.70;;;27.90;35.40;;;;;;5069540;28;20460;-43
2022/05/14 08:58:45;;;;;;;5.00;1.60;;;28.10;34.90;;;;;;5070117;28;20794;-45
2022/05/14 09:01:16;;;;;;;4.27;2.20;;;28.30;34.40;;;;;;5069446;28;20462;-44
2022/05/14 09:03:44;;;;;;;2.10;1.70;;;28.30;33.90;;;;;;5057528;28;20430;-45
2022/05/14 09:06:09;;;;;;;4.53;1.70;;;28.40;33.30;;;;;;5069640;28;20472;-45
2022/05/14 09:08:35;;;;;;;2.30;1.80;;;28.50;33.50;;;;;;5068510;28;20477;-45
2022/05/14 09:11:19;;;;;;;3.50;1.60;;;28.70;33.50;;;;;;5069491;28;20600;-47
2022/05/14 09:13:50;;;;;;;2.00;1.80;;;28.90;32.60;;;;;;5069775;28;20864;-44
2022/05/14 09:16:29;;;;;;;3.00;1.73;;;29.00;31.50;;;;;;5069364;28;20841;-48
2022/05/14 09:18:55;;;;;;;3.63;1.93;;;29.00;31.00;;;;;;5070053;28;20444;-48
2022/05/14 09:21:22;;;;;;;1.60;1.50;;;28.90;31.80;;;;;;5069246;28;20426;-44
2022/05/14 09:24:26;;;;;;;4.10;2.00;;;29.00;32.20;;;;;;5069529;28;20188;-46
2022/05/14 09:27:06;;;;;;;3.30;1.80;;;29.10;32.60;;;;;;5047570;28;20470;-45
2022/05/14 09:29:35;;;;;;;2.17;1.97;;;29.30;34.00;;;;;;5069640;28;20488;-48
2022/05/14 09:32:23;;;;;;;4.77;2.00;;;29.30;32.80;;;;;;5069379;28;20432;-45
2022/05/14 09:34:49;;;;;;;2.13;1.93;;;29.50;31.80;;;;;;5067023;28;20491;-46
2022/05/14 09:37:20;;;;;;;2.17;1.97;;;29.50;32.60;;;;;;5069768;28;20430;-45
2022/05/14 09:39:57;;;;;;;3.87;1.80;;;29.60;32.40;;;;;;5069182;28;20188;-44
2022/05/14 09:42:36;;;;;;;4.23;2.00;;;29.90;33.40;;;;;;5070263;28;20444;-45
2022/05/14 09:45:02;;;;;;;3.27;1.90;;;29.90;34.30;;;;;;5073041;28;20505;-43
2022/05/14 09:47:31;;;;;;;2.07;1.70;;;30.10;33.00;;;;;;5073616;28;20437;-45
2022/05/14 09:50:06;;;;;;;5.17;2.10;;;30.20;33.50;;;;;;5073109;28;20887;-45
2022/05/14 09:52:35;;;;;;;5.00;2.33;;;30.30;32.70;;;;;;5073194;28;20421;-45
2022/05/14 09:55:04;;;;;;;2.47;1.77;;;30.50;31.90;;;;;;5073151;28;20421;-45
2022/05/14 09:57:45;;;;;;;6.53;1.63;;;30.60;32.90;;;;;;5073304;28;20422;-44
2022/05/14 10:00:32;;;;;;;3.90;2.20;;;30.70;33.20;;;;;;5072706;28;20434;-45
2022/05/14 10:03:20;;;;;;;2.50;1.97;;;30.90;30.70;;;;;;5063968;28;20541;-44
2022/05/14 10:06:12;;;;;;;4.73;2.17;;;31.10;31.50;;;;;;5072355;28;20430;-44
2022/05/14 10:08:44;;;;;;;5.30;2.00;;;31.20;29.90;;;;;;5072973;28;20470;-44
2022/05/14 10:11:28;;;;;;;3.40;2.50;;;31.40;30.20;;;;;;5072959;28;20438;-45
2022/05/14 10:14:32;;;;;;;4.07;2.70;;;31.20;29.10;;;;;;5072939;28;20430;-44
2022/05/14 10:17:19;;;;;;;3.80;2.23;;;31.10;29.50;;;;;;5072110;28;20471;-45
2022/05/14 10:19:53;;;;;;;2.90;2.00;;;31.20;29.40;;;;;;5072613;28;20472;-45
2022/05/14 10:28:54;;;;;;;4.00;1.93;;;31.60;30.80;;;;;;5071529;28;20530;-44
2022/05/14 10:31:36;;;;;;;3.07;2.10;;;31.80;31.00;;;;;;5072402;28;20433;-44
2022/05/14 10:34:07;;;;;;;2.73;1.93;;;31.80;29.20;;;;;;5072379;28;20426;-44
2022/05/14 10:37:05;;;;;;;3.10;1.97;;;31.90;29.90;;;;;;5072325;28;20454;-44
2022/05/14 10:39:46;;;;;;;3.93;2.00;;;32.20;30.20;;;;;;5072257;28;20495;-44
2022/05/14 10:42:29;;;;;;;3.80;2.20;;;32.30;29.60;;;;;;5072945;28;20430;-44
2022/05/14 10:45:21;;;;;;;3.87;2.40;;;32.20;27.80;;;;;;5071962;28;20432;-44
2022/05/14 10:48:08;;;;;;;4.33;2.17;;;32.20;29.00;;;;;;5053798;28;20523;-45
2022/05/14 10:50:34;;;;;;;2.53;2.00;;;32.30;28.00;;;;;;5072042;28;20823;-44
2022/05/14 10:53:06;;;;;;;5.10;2.30;;;32.30;27.90;;;;;;5071977;28;20422;-44
2022/05/14 10:55:42;;;;;;;3.40;1.80;;;32.30;27.90;;;;;;5069187;28;20675;-45
2022/05/14 10:58:07;;;;;;;2.57;1.90;;;32.40;28.60;;;;;;5072297;28;20434;-44
2022/05/14 11:00:38;;;;;;;2.03;1.60;;;32.50;28.00;;;;;;5071652;28;20812;-48
2022/05/14 11:03:11;;;;;;;4.27;1.73;;;32.70;28.40;;;;;;5062190;28;20224;-44
2022/05/14 11:06:04;;;;;;;2.27;1.80;;;32.70;27.60;;;;;;5070422;28;20430;-45
2022/05/14 11:08:45;;;;;;;2.10;1.47;;;32.70;27.80;;;;;;5072137;28;20961;-45
2022/05/14 11:11:20;;;;;;;1.87;1.50;;;32.80;29.20;;;;;;5071907;28;20437;-46
2022/05/14 11:14:07;;;;;;;5.07;2.13;;;33.00;28.40;;;;;;5071699;28;20452;-45
2022/05/14 11:16:35;;;;;;;2.63;1.90;;;33.00;27.50;;;;;;5071174;28;20438;-46
2022/05/14 11:19:04;;;;;;;3.60;1.73;;;33.00;27.60;;;;;;5071990;28;20487;-46
2022/05/14 11:21:48;;;;;;;2.33;1.70;;;33.00;26.70;;;;;;5069471;28;20438;-47
2022/05/14 11:24:16;;;;;;;4.13;2.23;;;33.10;26.70;;;;;;5071635;28;20430;-45
2022/05/14 11:26:47;;;;;;;3.97;2.00;;;33.00;25.90;;;;;;5071449;28;20438;-47
2022/05/14 11:29:24;;;;;;;6.10;1.80;;;33.00;26.10;;;;;;5072166;28;20493;-45
2022/05/14 11:32:02;;;;;;;2.97;2.10;;;32.90;26.10;;;;;;5071372;28;20457;-48
2022/05/14 11:34:28;;;;;;;4.63;1.67;;;32.90;26.10;;;;;;5071131;28;20442;-46
2022/05/14 11:36:56;;;;;;;1.90;1.60;;;33.00;26.60;;;;;;5071260;28;20828;-44
2022/05/14 11:39:22;;;;;;;2.17;1.67;;;33.20;28.30;;;;;;5071555;28;20426;-44
2022/05/14 11:41:53;;;;;;;4.73;1.53;;;33.30;27.10;;;;;;5071146;28;20480;-45
2022/05/14 11:44:47;;;;;;;3.00;1.80;;;33.30;28.90;;;;;;5070943;28;20650;-46
2022/05/14 11:47:32;;;;;;;2.33;1.23;;;33.30;27.40;;;;;;5070015;28;20442;-45
2022/05/14 11:50:01;;;;;;;3.40;1.70;;;33.40;28.00;;;;;;5069218;28;20478;-45
2022/05/14 11:52:49;;;;;;;3.13;1.47;;;33.30;28.70;;;;;;5070767;28;20786;-45
2022/05/14 11:55:21;;;;;;;4.07;2.00;;;33.40;28.20;;;;;;5025853;28;20859;-48
2022/05/14 11:57:57;;;;;;;3.53;1.63;;;33.50;27.10;;;;;;5058710;28;20458;-45
2022/05/14 12:00:29;;;;;;;2.43;1.67;;;33.50;26.10;;;;;;5070780;28;20426;-45
2022/05/14 12:03:14;;;;;;;4.40;1.97;;;33.40;27.00;;;;;;5061821;28;20912;-45
2022/05/14 12:05:52;;;;;;;3.77;1.47;;;33.50;26.90;;;;;;5068907;28;20529;-48
2022/05/14 12:08:41;;;;;;;1.90;1.30;;;33.60;26.60;;;;;;5071016;28;20430;-45
2022/05/14 12:11:42;;;;;;;2.93;1.67;;;33.70;26.20;;;;;;5070441;28;20450;-47
2022/05/14 12:14:33;;;;;;;2.10;1.53;;;33.70;25.50;;;;;;5070852;28;20500;-45
2022/05/14 12:17:03;;;;;;;6.33;1.87;;;33.80;26.60;;;;;;5068300;28;20536;-46
2022/05/14 12:19:39;;;;;;;4.83;1.63;;;34.00;25.20;;;;;;5070954;28;20422;-46
2022/05/14 12:22:17;;;;;;;3.40;1.43;;;33.60;25.20;;;;;;5057674;28;21315;-46
2022/05/14 12:24:56;;;;;;;2.70;1.20;;;33.50;26.00;;;;;;5070409;28;20429;-48
2022/05/14 12:27:22;;;;;;;6.30;1.50;;;33.50;26.70;;;;;;5070476;28;20935;-44
2022/05/14 12:33:11;;;;;;;1.73;1.40;;;33.50;25.40;;;;;;5070075;28;20486;-45
2022/05/14 12:33:13;;;;;;;2.70;1.50;;;33.40;26.00;;;;;;5070012;28;20438;-48
2022/05/14 12:35:42;;;;;;;2.40;1.53;;;33.40;24.40;;;;;;5069767;28;20841;-46
2022/05/14 12:38:11;;;;;;;1.70;1.60;;;33.40;24.80;;;;;;5070266;28;20482;-46
2022/05/14 12:40:41;;;;;;;1.70;1.60;;;33.50;24.20;;;;;;5069918;28;20429;-46
2022/05/14 12:43:12;;;;;;;1.47;1.17;;;33.50;24.50;;;;;;5067194;28;20910;-45
2022/05/14 12:45:41;;;;;;;3.13;1.60;;;33.70;25.20;;;;;;5069680;28;20540;-45
2022/05/14 12:48:09;;;;;;;2.43;1.40;;;33.80;23.30;;;;;;5070286;28;20427;-44
2022/05/14 12:50:35;;;;;;;2.80;1.70;;;33.90;23.90;;;;;;5069768;28;20789;-45
2022/05/14 12:53:05;;;;;;;2.17;1.47;;;34.00;26.00;;;;;;5069666;28;20476;-44
2022/05/14 12:55:43;;;;;;;1.50;1.40;;;33.70;24.10;;;;;;5069626;28;20850;-46
2022/05/14 12:58:09;;;;;;;1.93;1.30;;;33.80;24.70;;;;;;5070035;28;20429;-44
2022/05/14 13:00:38;;;;;;;2.70;1.40;;;33.80;25.10;;;;;;5069625;28;20957;-46
2022/05/14 13:03:24;;;;;;;6.33;1.50;;;33.60;23.50;;;;;;5059750;28;20475;-46
2022/05/14 13:06:16;;;;;;;5.67;1.67;;;33.70;23.90;;;;;;5056491;28;20461;-45
2022/05/14 13:08:46;;;;;;;1.63;1.40;;;33.80;24.80;;;;;;5069629;28;20560;-46
2022/05/14 13:11:21;;;;;;;2.50;1.37;;;33.90;25.40;;;;;;5068757;28;20443;-49
2022/05/14 13:13:51;;;;;;;2.80;1.57;;;33.80;24.00;;;;;;5069345;28;20859;-46
2022/05/14 13:16:22;;;;;;;4.13;1.73;;;33.80;25.10;;;;;;5069794;28;20422;-45
2022/05/14 13:18:58;;;;;;;3.03;1.70;;;34.00;24.40;;;;;;5069405;28;20442;-45